Terminal Aerodrome Forecast
Issued by NWS Cleveland, OH

Home | Current Version | Previous Version | Text Only | Print | Product List | Glossary On
Versions: 1 2 3 4 5 6 7 8 9 10 11 12 13 14 15 16 17 18
000
FTUS41 KCLE 202300
TAFTOL
TAF
KTOL 202320Z 2100/2124 VRB03KT P6SM -SHSN OVC025
      TEMPO 2100/2104 5SM -SHSN SCT025 OVC045
     FM210600 VRB03KT P6SM OVC015
      TEMPO 2110/2114 6SM BR
     FM211600 18004KT P6SM BKN025=

USA.gov is the U.S. government's official web portal to all federal, state and local government web resources and services.